SLI055 MMCL-MMLP
Flight info
| Callsign | SLI055 |
|---|---|
| Flight time | 0h 34m |
| Altitude | 26000 |
| Route | ILAVI1B ILAVI UJ10 LAP |
| Aircraft | E190/M-SDE3GILORVW/S |
Departure
| Time | 2026-05-07 06:02 |
|---|---|
| Airport | Bachigualato Federal International Airport (MMCL) |
Arrival
| Time | 2026-05-07 06:37 |
|---|---|
| Airport | Manuel Márquez de León International Airport (MMLP) |
| Time | Latitude | Longitude | Altitude | Speed | Heading |
|---|---|---|---|---|---|
| 2026-05-07 05:49 | 24.76588 | -107.47144 | 111 ft | 0 kts | 123° |
| 2026-05-07 05:55 | 24.76590 | -107.47148 | 111 ft | 2 kts | 122° |
| 2026-05-07 05:55 | 24.76597 | -107.47161 | 110 ft | 2 kts | 122° |
| 2026-05-07 05:55 | 24.76603 | -107.47170 | 109 ft | 2 kts | 121° |
| 2026-05-07 05:56 | 24.76608 | -107.47182 | 108 ft | 1 kts | 112° |
| 2026-05-07 05:56 | 24.76610 | -107.47187 | 111 ft | 1 kts | 96° |
| 2026-05-07 05:56 | 24.76611 | -107.47194 | 111 ft | 1 kts | 63° |
| 2026-05-07 05:56 | 24.76608 | -107.47199 | 111 ft | 1 kts | 44° |
| 2026-05-07 05:57 | 24.76604 | -107.47203 | 109 ft | 1 kts | 36° |
| 2026-05-07 05:57 | 24.76600 | -107.47206 | 109 ft | 1 kts | 33° |
| 2026-05-07 05:57 | 24.76597 | -107.47208 | 108 ft | 0 kts | 33° |
| 2026-05-07 05:58 | 24.76598 | -107.47207 | 109 ft | 1 kts | 33° |
| 2026-05-07 05:58 | 24.76607 | -107.47201 | 109 ft | 2 kts | 33° |
| 2026-05-07 05:58 | 24.76625 | -107.47188 | 110 ft | 4 kts | 32° |
| 2026-05-07 05:58 | 24.76650 | -107.47170 | 111 ft | 5 kts | 33° |
| 2026-05-07 05:59 | 24.76684 | -107.47145 | 111 ft | 7 kts | 33° |
| 2026-05-07 05:59 | 24.76728 | -107.47112 | 110 ft | 8 kts | 33° |
| 2026-05-07 05:59 | 24.76782 | -107.47073 | 112 ft | 10 kts | 33° |
| 2026-05-07 05:59 | 24.76844 | -107.47028 | 112 ft | 11 kts | 33° |
| 2026-05-07 06:00 | 24.76921 | -107.46997 | 112 ft | 12 kts | 14° |
| 2026-05-07 06:00 | 24.76997 | -107.46951 | 112 ft | 13 kts | 30° |
| 2026-05-07 06:00 | 24.77076 | -107.46894 | 113 ft | 14 kts | 32° |
| 2026-05-07 06:00 | 24.77162 | -107.46832 | 113 ft | 15 kts | 35° |
| 2026-05-07 06:01 | 24.77257 | -107.46815 | 113 ft | 14 kts | 320° |
| 2026-05-07 06:01 | 24.77304 | -107.46910 | 114 ft | 14 kts | 271° |
| 2026-05-07 06:01 | 24.77202 | -107.47016 | 113 ft | 44 kts | 216° |
| 2026-05-07 06:01 | 24.76751 | -107.47336 | 110 ft | 109 kts | 212° |
| 2026-05-07 06:02 | 24.75956 | -107.47909 | 114 ft | 162 kts | 213° |
| 2026-05-07 06:02 | 24.74948 | -107.48628 | 625 ft | 174 kts | 214° |
| 2026-05-07 06:02 | 24.73931 | -107.49406 | 1214 ft | 183 kts | 219° |
| 2026-05-07 06:02 | 24.72800 | -107.50284 | 1683 ft | 207 kts | 216° |
| 2026-05-07 06:03 | 24.71550 | -107.51140 | 2526 ft | 214 kts | 214° |
| 2026-05-07 06:03 | 24.70276 | -107.52019 | 3401 ft | 218 kts | 213° |
| 2026-05-07 06:03 | 24.68989 | -107.52918 | 4297 ft | 220 kts | 213° |
| 2026-05-07 06:03 | 24.67699 | -107.53828 | 5179 ft | 221 kts | 213° |
| 2026-05-07 06:04 | 24.66405 | -107.54747 | 6033 ft | 222 kts | 213° |
| 2026-05-07 06:04 | 24.65174 | -107.55773 | 6832 ft | 223 kts | 226° |
| 2026-05-07 06:04 | 24.64359 | -107.57218 | 7602 ft | 224 kts | 246° |
| 2026-05-07 06:04 | 24.63771 | -107.58808 | 8380 ft | 224 kts | 247° |
| 2026-05-07 06:05 | 24.63195 | -107.60405 | 9085 ft | 225 kts | 248° |
| 2026-05-07 06:05 | 24.62621 | -107.62010 | 9722 ft | 226 kts | 248° |
| 2026-05-07 06:05 | 24.62051 | -107.63625 | 10413 ft | 222 kts | 248° |
| 2026-05-07 06:05 | 24.61496 | -107.65196 | 11207 ft | 220 kts | 248° |
| 2026-05-07 06:06 | 24.60944 | -107.66762 | 11899 ft | 220 kts | 248° |
| 2026-05-07 06:06 | 24.60579 | -107.67809 | 12295 ft | 225 kts | 248° |
| 2026-05-07 06:06 | 24.60006 | -107.69462 | 12797 ft | 243 kts | 248° |
| 2026-05-07 06:06 | 24.59379 | -107.71287 | 13173 ft | 266 kts | 248° |
| 2026-05-07 06:07 | 24.58702 | -107.73263 | 13670 ft | 285 kts | 248° |
| 2026-05-07 06:07 | 24.57997 | -107.75325 | 14482 ft | 290 kts | 248° |
| 2026-05-07 06:07 | 24.57288 | -107.77398 | 15491 ft | 289 kts | 248° |
| 2026-05-07 06:07 | 24.56584 | -107.79462 | 16513 ft | 288 kts | 248° |
| 2026-05-07 06:08 | 24.55884 | -107.81532 | 17440 ft | 290 kts | 248° |
| 2026-05-07 06:08 | 24.55182 | -107.83620 | 18291 ft | 293 kts | 248° |
| 2026-05-07 06:08 | 24.54456 | -107.85774 | 18657 ft | 309 kts | 247° |
| 2026-05-07 06:08 | 24.53682 | -107.88043 | 19033 ft | 323 kts | 248° |
| 2026-05-07 06:09 | 24.52892 | -107.90373 | 19655 ft | 328 kts | 248° |
| 2026-05-07 06:09 | 24.52093 | -107.92728 | 20360 ft | 330 kts | 248° |
| 2026-05-07 06:09 | 24.51378 | -107.95142 | 21038 ft | 335 kts | 251° |
| 2026-05-07 06:09 | 24.50735 | -107.97617 | 21678 ft | 339 kts | 251° |
| 2026-05-07 06:10 | 24.50077 | -108.00117 | 22323 ft | 342 kts | 251° |
| 2026-05-07 06:10 | 24.49400 | -108.02636 | 22960 ft | 346 kts | 251° |
| 2026-05-07 06:10 | 24.48711 | -108.05178 | 23556 ft | 349 kts | 251° |
| 2026-05-07 06:10 | 24.48014 | -108.07737 | 24066 ft | 352 kts | 251° |
| 2026-05-07 06:11 | 24.47309 | -108.10314 | 24574 ft | 354 kts | 250° |
| 2026-05-07 06:11 | 24.46599 | -108.12906 | 25063 ft | 356 kts | 250° |
| 2026-05-07 06:11 | 24.45884 | -108.15512 | 25545 ft | 358 kts | 250° |
| 2026-05-07 06:11 | 24.45173 | -108.18098 | 26037 ft | 357 kts | 250° |
| 2026-05-07 06:12 | 24.44441 | -108.20754 | 26130 ft | 372 kts | 250° |
| 2026-05-07 06:12 | 24.43677 | -108.23519 | 26129 ft | 387 kts | 250° |
| 2026-05-07 06:12 | 24.42883 | -108.26402 | 25926 ft | 402 kts | 250° |
| 2026-05-07 06:12 | 24.42064 | -108.29383 | 25949 ft | 414 kts | 250° |
| 2026-05-07 06:13 | 24.41227 | -108.32429 | 25959 ft | 420 kts | 250° |
| 2026-05-07 06:13 | 24.40535 | -108.35554 | 25972 ft | 426 kts | 259° |
| 2026-05-07 06:13 | 24.40585 | -108.38823 | 25980 ft | 435 kts | 274° |
| 2026-05-07 06:13 | 24.41231 | -108.42088 | 25940 ft | 439 kts | 278° |
| 2026-05-07 06:14 | 24.41944 | -108.45339 | 25959 ft | 438 kts | 278° |
| 2026-05-07 06:14 | 24.42673 | -108.48587 | 25967 ft | 438 kts | 278° |
| 2026-05-07 06:14 | 24.43411 | -108.51831 | 25964 ft | 438 kts | 278° |
| 2026-05-07 06:14 | 24.44153 | -108.55072 | 25964 ft | 438 kts | 279° |
| 2026-05-07 06:15 | 24.44895 | -108.58315 | 25965 ft | 438 kts | 278° |
| 2026-05-07 06:15 | 24.45635 | -108.61554 | 25964 ft | 438 kts | 278° |
| 2026-05-07 06:15 | 24.46375 | -108.64793 | 25965 ft | 437 kts | 278° |
| 2026-05-07 06:15 | 24.47112 | -108.68029 | 25967 ft | 437 kts | 278° |
| 2026-05-07 06:16 | 24.47593 | -108.71283 | 25976 ft | 428 kts | 266° |
| 2026-05-07 06:16 | 24.47181 | -108.74469 | 25988 ft | 420 kts | 253° |
| 2026-05-07 06:16 | 24.46474 | -108.77588 | 25959 ft | 420 kts | 253° |
| 2026-05-07 06:16 | 24.45782 | -108.80703 | 25971 ft | 420 kts | 253° |
| 2026-05-07 06:17 | 24.45077 | -108.83813 | 25968 ft | 420 kts | 253° |
| 2026-05-07 06:17 | 24.44360 | -108.86924 | 25970 ft | 420 kts | 253° |
| 2026-05-07 06:17 | 24.43638 | -108.90029 | 25968 ft | 420 kts | 252° |
| 2026-05-07 06:17 | 24.42912 | -108.93138 | 25966 ft | 420 kts | 252° |
| 2026-05-07 06:18 | 24.42187 | -108.96240 | 25965 ft | 420 kts | 252° |
| 2026-05-07 06:18 | 24.41460 | -108.99347 | 25969 ft | 420 kts | 252° |
| 2026-05-07 06:18 | 24.40734 | -109.02451 | 25972 ft | 420 kts | 252° |
| 2026-05-07 06:18 | 24.40009 | -109.05559 | 25969 ft | 420 kts | 253° |
| 2026-05-07 06:19 | 24.39493 | -109.08630 | 25941 ft | 398 kts | 259° |
| 2026-05-07 06:19 | 24.39215 | -109.11558 | 25908 ft | 375 kts | 260° |
| 2026-05-07 06:19 | 24.38949 | -109.14320 | 25857 ft | 353 kts | 259° |
| 2026-05-07 06:19 | 24.38659 | -109.16931 | 25687 ft | 338 kts | 258° |
| 2026-05-07 06:20 | 24.38362 | -109.19438 | 25449 ft | 325 kts | 258° |
| 2026-05-07 06:20 | 24.38063 | -109.21878 | 24981 ft | 325 kts | 258° |
| 2026-05-07 06:20 | 24.37744 | -109.24403 | 24375 ft | 346 kts | 258° |
| 2026-05-07 06:20 | 24.37409 | -109.27074 | 23555 ft | 359 kts | 259° |
| 2026-05-07 06:21 | 24.37076 | -109.29809 | 22576 ft | 363 kts | 259° |
| 2026-05-07 06:21 | 24.36746 | -109.32522 | 21618 ft | 365 kts | 259° |
| 2026-05-07 06:21 | 24.36401 | -109.35287 | 20669 ft | 367 kts | 259° |
| 2026-05-07 06:21 | 24.36051 | -109.38063 | 19713 ft | 369 kts | 259° |
| 2026-05-07 06:22 | 24.35701 | -109.40855 | 18785 ft | 371 kts | 259° |
| 2026-05-07 06:22 | 24.35022 | -109.46301 | 17783 ft | 349 kts | 259° |
| 2026-05-07 06:22 | 24.34697 | -109.48891 | 17347 ft | 338 kts | 259° |
| 2026-05-07 06:23 | 24.34379 | -109.51411 | 16904 ft | 329 kts | 259° |
| 2026-05-07 06:23 | 24.34068 | -109.53868 | 16473 ft | 321 kts | 259° |
| 2026-05-07 06:23 | 24.33761 | -109.56284 | 15971 ft | 320 kts | 259° |
| 2026-05-07 06:23 | 24.33454 | -109.58699 | 15589 ft | 320 kts | 259° |
| 2026-05-07 06:24 | 24.33145 | -109.61125 | 15145 ft | 322 kts | 259° |
| 2026-05-07 06:24 | 24.32835 | -109.63558 | 14723 ft | 321 kts | 259° |
| 2026-05-07 06:24 | 24.32531 | -109.65954 | 14295 ft | 315 kts | 259° |
| 2026-05-07 06:24 | 24.32231 | -109.68313 | 13884 ft | 309 kts | 259° |
| 2026-05-07 06:25 | 24.31936 | -109.70624 | 13467 ft | 303 kts | 259° |
| 2026-05-07 06:25 | 24.31647 | -109.72884 | 13095 ft | 296 kts | 259° |
| 2026-05-07 06:25 | 24.31363 | -109.75101 | 12700 ft | 291 kts | 259° |
| 2026-05-07 06:25 | 24.31084 | -109.77278 | 12315 ft | 286 kts | 259° |
| 2026-05-07 06:26 | 24.30808 | -109.79421 | 11938 ft | 282 kts | 259° |
| 2026-05-07 06:26 | 24.30535 | -109.81533 | 11566 ft | 278 kts | 259° |
| 2026-05-07 06:26 | 24.30265 | -109.83626 | 11207 ft | 276 kts | 259° |
| 2026-05-07 06:26 | 24.29995 | -109.85709 | 10846 ft | 276 kts | 259° |
| 2026-05-07 06:27 | 24.29726 | -109.87788 | 10487 ft | 276 kts | 259° |
| 2026-05-07 06:27 | 24.29457 | -109.89868 | 10131 ft | 275 kts | 260° |
| 2026-05-07 06:27 | 24.29187 | -109.91949 | 9727 ft | 276 kts | 260° |
| 2026-05-07 06:27 | 24.28919 | -109.94013 | 9383 ft | 271 kts | 260° |
| 2026-05-07 06:28 | 24.28655 | -109.96047 | 9041 ft | 269 kts | 260° |
| 2026-05-07 06:28 | 24.28391 | -109.98074 | 8688 ft | 269 kts | 260° |
| 2026-05-07 06:28 | 24.28136 | -110.00021 | 8348 ft | 268 kts | 260° |
| 2026-05-07 06:28 | 24.27872 | -110.02045 | 7986 ft | 268 kts | 260° |
| 2026-05-07 06:29 | 24.27608 | -110.04061 | 7636 ft | 267 kts | 260° |
| 2026-05-07 06:29 | 24.27348 | -110.06043 | 7295 ft | 266 kts | 261° |
| 2026-05-07 06:29 | 24.27086 | -110.08045 | 6956 ft | 265 kts | 261° |
| 2026-05-07 06:29 | 24.26824 | -110.10038 | 6603 ft | 263 kts | 261° |
| 2026-05-07 06:30 | 24.26564 | -110.12020 | 6251 ft | 262 kts | 261° |
| 2026-05-07 06:30 | 24.26305 | -110.13990 | 5911 ft | 261 kts | 261° |
| 2026-05-07 06:30 | 24.26047 | -110.15948 | 5574 ft | 257 kts | 261° |
| 2026-05-07 06:30 | 24.25796 | -110.17859 | 5230 ft | 249 kts | 261° |
| 2026-05-07 06:31 | 24.25552 | -110.19702 | 4936 ft | 241 kts | 261° |
| 2026-05-07 06:31 | 24.25313 | -110.21500 | 4584 ft | 235 kts | 261° |
| 2026-05-07 06:31 | 24.25081 | -110.23246 | 4306 ft | 228 kts | 261° |
| 2026-05-07 06:31 | 24.24857 | -110.24943 | 4020 ft | 222 kts | 260° |
| 2026-05-07 06:32 | 24.24637 | -110.26601 | 3716 ft | 218 kts | 260° |
| 2026-05-07 06:32 | 24.24417 | -110.28223 | 3460 ft | 213 kts | 261° |
| 2026-05-07 06:32 | 24.24208 | -110.29816 | 3229 ft | 209 kts | 261° |
| 2026-05-07 06:32 | 24.24004 | -110.31346 | 2997 ft | 195 kts | 258° |
| 2026-05-07 06:33 | 24.23492 | -110.32690 | 2701 ft | 191 kts | 233° |
| 2026-05-07 06:33 | 24.22460 | -110.33577 | 2541 ft | 190 kts | 210° |
| 2026-05-07 06:33 | 24.21254 | -110.34199 | 2417 ft | 196 kts | 197° |
| 2026-05-07 06:33 | 24.19900 | -110.34403 | 2225 ft | 196 kts | 185° |
| 2026-05-07 06:34 | 24.18552 | -110.34564 | 2009 ft | 193 kts | 191° |
| 2026-05-07 06:34 | 24.17265 | -110.34810 | 1773 ft | 180 kts | 191° |
| 2026-05-07 06:34 | 24.16072 | -110.34973 | 1555 ft | 165 kts | 188° |
| 2026-05-07 06:34 | 24.14989 | -110.35122 | 1388 ft | 148 kts | 190° |
| 2026-05-07 06:35 | 24.14004 | -110.35276 | 1172 ft | 137 kts | 189° |
| 2026-05-07 06:35 | 24.13082 | -110.35412 | 989 ft | 132 kts | 188° |
| 2026-05-07 06:35 | 24.12186 | -110.35541 | 827 ft | 128 kts | 188° |
| 2026-05-07 06:35 | 24.11299 | -110.35664 | 653 ft | 128 kts | 187° |
| 2026-05-07 06:36 | 24.10426 | -110.35804 | 566 ft | 131 kts | 187° |
| 2026-05-07 06:36 | 24.09517 | -110.35933 | 384 ft | 133 kts | 187° |
| 2026-05-07 06:36 | 24.08617 | -110.36060 | 195 ft | 129 kts | 186° |
| 2026-05-07 06:36 | 24.07773 | -110.36183 | 73 ft | 108 kts | 187° |
| 2026-05-07 06:37 | 24.07159 | -110.36271 | 74 ft | 58 kts | 186° |
| 2026-05-07 06:37 | 24.07030 | -110.36303 | 74 ft | 1 kts | 289° |
| 2026-05-07 06:37 | 24.07051 | -110.36307 | 66 ft | 8 kts | 348° |
| 2026-05-07 06:37 | 24.07122 | -110.36322 | 73 ft | 11 kts | 347° |
| 2026-05-07 06:38 | 24.07196 | -110.36353 | 75 ft | 12 kts | 338° |
| 2026-05-07 06:38 | 24.07274 | -110.36388 | 69 ft | 13 kts | 338° |
| 2026-05-07 06:38 | 24.07360 | -110.36426 | 82 ft | 14 kts | 337° |
| 2026-05-07 06:38 | 24.07406 | -110.36509 | 80 ft | 8 kts | 279° |
| 2026-05-07 06:39 | 24.07417 | -110.36576 | 82 ft | 10 kts | 284° |
| 2026-05-07 06:39 | 24.07431 | -110.36653 | 82 ft | 8 kts | 277° |
| 2026-05-07 06:39 | 24.07432 | -110.36660 | 81 ft | 0 kts | 276° |